sensor_id;sensor_type;location;lat;lon;timestamp;pressure;altitude;pressure_sealevel;temperature;humidity
36062;BME280;22123;52.412;20.970;2023-05-19T00:00:56;101882.28;;;10.15;100.00
36062;BME280;22123;52.412;20.970;2023-05-19T00:03:22;101877.56;;;10.07;100.00
36062;BME280;22123;52.412;20.970;2023-05-19T00:05:54;101891.22;;;10.16;100.00
36062;BME280;22123;52.412;20.970;2023-05-19T00:08:22;101899.72;;;10.21;100.00
36062;BME280;22123;52.412;20.970;2023-05-19T00:10:48;101888.66;;;10.14;100.00
36062;BME280;22123;52.412;20.970;2023-05-19T00:13:14;101867.09;;;10.04;100.00
36062;BME280;22123;52.412;20.970;2023-05-19T00:15:40;101874.34;;;10.14;100.00
36062;BME280;22123;52.412;20.970;2023-05-19T00:18:06;101883.84;;;10.18;100.00
36062;BME280;22123;52.412;20.970;2023-05-19T00:20:32;101888.81;;;10.22;100.00
36062;BME280;22123;52.412;20.970;2023-05-19T00:22:58;101875.78;;;10.18;100.00
36062;BME280;22123;52.412;20.970;2023-05-19T00:25:24;101860.13;;;10.02;100.00
36062;BME280;22123;52.412;20.970;2023-05-19T00:27:49;101847.69;;;10.01;100.00
36062;BME280;22123;52.412;20.970;2023-05-19T00:30:15;101873.94;;;10.18;100.00
36062;BME280;22123;52.412;20.970;2023-05-19T00:32:41;101846.81;;;10.00;100.00
36062;BME280;22123;52.412;20.970;2023-05-19T00:35:07;101862.03;;;10.11;100.00
36062;BME280;22123;52.412;20.970;2023-05-19T00:37:33;101861.34;;;10.19;100.00
36062;BME280;22123;52.412;20.970;2023-05-19T00:39:59;101827.41;;;9.97;100.00
36062;BME280;22123;52.412;20.970;2023-05-19T00:42:25;101847.28;;;10.05;100.00
36062;BME280;22123;52.412;20.970;2023-05-19T00:44:51;101850.66;;;10.07;100.00
36062;BME280;22123;52.412;20.970;2023-05-19T00:47:17;101852.09;;;10.12;100.00
36062;BME280;22123;52.412;20.970;2023-05-19T00:49:43;101853.34;;;10.07;100.00
36062;BME280;22123;52.412;20.970;2023-05-19T00:52:09;101863.31;;;10.17;100.00
36062;BME280;22123;52.412;20.970;2023-05-19T00:54:35;101849.97;;;10.05;100.00
36062;BME280;22123;52.412;20.970;2023-05-19T00:57:01;101840.00;;;9.96;100.00
36062;BME280;22123;52.412;20.970;2023-05-19T00:59:27;101833.06;;;9.94;100.00
36062;BME280;22123;52.412;20.970;2023-05-19T01:01:53;101857.03;;;10.06;100.00
36062;BME280;22123;52.412;20.970;2023-05-19T01:04:19;101852.06;;;10.02;100.00
36062;BME280;22123;52.412;20.970;2023-05-19T01:06:46;101869.34;;;10.09;100.00
36062;BME280;22123;52.412;20.970;2023-05-19T01:09:11;101849.34;;;10.02;100.00
36062;BME280;22123;52.412;20.970;2023-05-19T01:11:37;101842.94;;;9.93;100.00
36062;BME280;22123;52.412;20.970;2023-05-19T01:14:03;101840.00;;;9.96;100.00
36062;BME280;22123;52.412;20.970;2023-05-19T01:20:07;101864.31;;;10.16;100.00
36062;BME280;22123;52.412;20.970;2023-05-19T01:23:03;101858.78;;;10.17;100.00
36062;BME280;22123;52.412;20.970;2023-05-19T01:31:16;101848.44;;;10.13;100.00
36062;BME280;22123;52.412;20.970;2023-05-19T01:33:42;101859.22;;;10.22;100.00
36062;BME280;22123;52.412;20.970;2023-05-19T01:36:10;101747.94;;;9.52;100.00
36062;BME280;22123;52.412;20.970;2023-05-19T01:38:37;101865.16;;;10.16;100.00
36062;BME280;22123;52.412;20.970;2023-05-19T01:41:05;101865.28;;;10.15;100.00
36062;BME280;22123;52.412;20.970;2023-05-19T01:43:32;101825.22;;;9.90;100.00
36062;BME280;22123;52.412;20.970;2023-05-19T01:45:57;101866.13;;;10.15;100.00
36062;BME280;22123;52.412;20.970;2023-05-19T01:48:25;101859.91;;;10.15;100.00
36062;BME280;22123;52.412;20.970;2023-05-19T01:50:51;101853.06;;;10.10;100.00
36062;BME280;22123;52.412;20.970;2023-05-19T01:53:17;101827.53;;;9.95;100.00
36062;BME280;22123;52.412;20.970;2023-05-19T01:55:49;101854.66;;;10.13;100.00
36062;BME280;22123;52.412;20.970;2023-05-19T01:58:46;101850.53;;;10.09;100.00
36062;BME280;22123;52.412;20.970;2023-05-19T02:01:36;101859.59;;;10.08;100.00
36062;BME280;22123;52.412;20.970;2023-05-19T02:04:15;101854.59;;;10.03;100.00
36062;BME280;22123;52.412;20.970;2023-05-19T02:06:58;101859.84;;;10.05;100.00
36062;BME280;22123;52.412;20.970;2023-05-19T02:09:38;101851.34;;;10.00;100.00
36062;BME280;22123;52.412;20.970;2023-05-19T02:14:49;101856.03;;;10.07;100.00
36062;BME280;22123;52.412;20.970;2023-05-19T02:17:19;101825.50;;;9.87;100.00
36062;BME280;22123;52.412;20.970;2023-05-19T02:19:46;101848.06;;;9.96;100.00
36062;BME280;22123;52.412;20.970;2023-05-19T02:22:12;101847.53;;;10.02;100.00
36062;BME280;22123;52.412;20.970;2023-05-19T02:24:37;101834.88;;;9.93;100.00
36062;BME280;22123;52.412;20.970;2023-05-19T02:27:03;101836.72;;;9.92;100.00
36062;BME280;22123;52.412;20.970;2023-05-19T02:29:29;101859.84;;;10.05;100.00
36062;BME280;22123;52.412;20.970;2023-05-19T02:31:55;101808.47;;;9.77;100.00
36062;BME280;22123;52.412;20.970;2023-05-19T02:34:21;101815.03;;;9.84;100.00
36062;BME280;22123;52.412;20.970;2023-05-19T02:36:47;101847.41;;;10.04;100.00
36062;BME280;22123;52.412;20.970;2023-05-19T02:39:13;101845.56;;;10.04;100.00
36062;BME280;22123;52.412;20.970;2023-05-19T02:41:39;101834.03;;;9.92;100.00
36062;BME280;22123;52.412;20.970;2023-05-19T02:44:05;101850.09;;;10.04;100.00
36062;BME280;22123;52.412;20.970;2023-05-19T02:46:31;101817.56;;;9.86;100.00
36062;BME280;22123;52.412;20.970;2023-05-19T02:48:56;101832.38;;;10.01;100.00
36062;BME280;22123;52.412;20.970;2023-05-19T02:51:22;101792.47;;;9.75;100.00
36062;BME280;22123;52.412;20.970;2023-05-19T02:53:48;101830.94;;;9.97;100.00
36062;BME280;22123;52.412;20.970;2023-05-19T02:56:14;101818.59;;;9.95;100.00
36062;BME280;22123;52.412;20.970;2023-05-19T02:58:40;101824.59;;;9.98;100.00
36062;BME280;22123;52.412;20.970;2023-05-19T03:01:06;101808.84;;;9.94;100.00
36062;BME280;22123;52.412;20.970;2023-05-19T03:03:32;101847.97;;;10.07;100.00
36062;BME280;22123;52.412;20.970;2023-05-19T03:05:58;101842.88;;;10.04;100.00
36062;BME280;22123;52.412;20.970;2023-05-19T03:08:24;101821.69;;;9.90;100.00
36062;BME280;22123;52.412;20.970;2023-05-19T03:10:50;101844.13;;;10.00;100.00
36062;BME280;22123;52.412;20.970;2023-05-19T03:13:15;101848.94;;;10.06;100.00
36062;BME280;22123;52.412;20.970;2023-05-19T03:15:41;101850.53;;;10.09;100.00
36062;BME280;22123;52.412;20.970;2023-05-19T03:18:07;101843.13;;;10.01;100.00
36062;BME280;22123;52.412;20.970;2023-05-19T03:20:33;101856.78;;;10.09;100.00
36062;BME280;22123;52.412;20.970;2023-05-19T03:22:59;101825.84;;;9.94;100.00
36062;BME280;22123;52.412;20.970;2023-05-19T03:25:25;101830.47;;;9.92;100.00
36062;BME280;22123;52.412;20.970;2023-05-19T03:27:51;101813.31;;;9.83;100.00
36062;BME280;22123;52.412;20.970;2023-05-19T03:30:17;101851.91;;;10.03;100.00
36062;BME280;22123;52.412;20.970;2023-05-19T03:32:43;101862.28;;;10.08;100.00
36062;BME280;22123;52.412;20.970;2023-05-19T03:35:09;101853.06;;;10.01;100.00
36062;BME280;22123;52.412;20.970;2023-05-19T03:37:35;101847.91;;;9.98;100.00
36062;BME280;22123;52.412;20.970;2023-05-19T03:40:01;101861.28;;;10.09;100.00
36062;BME280;22123;52.412;20.970;2023-05-19T03:42:26;101850.94;;;10.04;100.00
36062;BME280;22123;52.412;20.970;2023-05-19T03:44:52;101799.25;;;9.70;100.00
36062;BME280;22123;52.412;20.970;2023-05-19T03:47:18;101852.78;;;10.04;100.00
36062;BME280;22123;52.412;20.970;2023-05-19T03:49:44;101833.91;;;9.94;100.00
36062;BME280;22123;52.412;20.970;2023-05-19T03:52:10;101866.41;;;10.12;100.00
36062;BME280;22123;52.412;20.970;2023-05-19T03:54:36;101844.84;;;10.02;100.00
36062;BME280;22123;52.412;20.970;2023-05-19T03:57:02;101867.53;;;10.09;100.00
36062;BME280;22123;52.412;20.970;2023-05-19T03:59:28;101862.69;;;10.03;100.00
36062;BME280;22123;52.412;20.970;2023-05-19T04:01:54;101840.41;;;9.91;100.00
36062;BME280;22123;52.412;20.970;2023-05-19T04:04:20;101823.22;;;9.83;100.00
36062;BME280;22123;52.412;20.970;2023-05-19T04:06:46;101857.03;;;10.06;100.00
36062;BME280;22123;52.412;20.970;2023-05-19T04:09:13;101868.94;;;10.14;100.00
36062;BME280;22123;52.412;20.970;2023-05-19T04:11:40;101852.66;;;10.05;100.00
36062;BME280;22123;52.412;20.970;2023-05-19T04:14:06;101795.16;;;9.75;100.00
36062;BME280;22123;52.412;20.970;2023-05-19T04:16:32;101843.84;;;10.03;100.00
36062;BME280;22123;52.412;20.970;2023-05-19T04:18:58;101821.97;;;9.87;100.00
36062;BME280;22123;52.412;20.970;2023-05-19T04:21:24;101846.41;;;10.05;100.00
36062;BME280;22123;52.412;20.970;2023-05-19T04:23:50;101857.06;;;10.16;100.00
36062;BME280;22123;52.412;20.970;2023-05-19T04:26:16;101846.84;;;10.10;100.00
36062;BME280;22123;52.412;20.970;2023-05-19T04:28:42;101830.81;;;9.99;100.00
36062;BME280;22123;52.412;20.970;2023-05-19T04:31:08;101825.56;;;9.97;100.00
36062;BME280;22123;52.412;20.970;2023-05-19T04:33:34;101825.84;;;9.94;100.00
36062;BME280;22123;52.412;20.970;2023-05-19T04:35:59;101847.41;;;10.14;100.00
36062;BME280;22123;52.412;20.970;2023-05-19T04:38:25;101859.63;;;10.18;100.00
36062;BME280;22123;52.412;20.970;2023-05-19T04:40:51;101841.63;;;10.08;100.00
36062;BME280;22123;52.412;20.970;2023-05-19T04:43:17;101851.69;;;10.16;100.00
36062;BME280;22123;52.412;20.970;2023-05-19T04:45:43;101807.94;;;9.83;100.00
36062;BME280;22123;52.412;20.970;2023-05-19T04:48:09;101846.59;;;10.13;100.00
36062;BME280;22123;52.412;20.970;2023-05-19T04:50:35;101838.47;;;10.03;100.00
36062;BME280;22123;52.412;20.970;2023-05-19T04:53:01;101828.94;;;9.99;100.00
36062;BME280;22123;52.412;20.970;2023-05-19T04:55:26;101845.59;;;10.14;100.00
36062;BME280;22123;52.412;20.970;2023-05-19T04:57:52;101844.72;;;10.14;100.00
36062;BME280;22123;52.412;20.970;2023-05-19T05:00:19;101866.16;;;10.25;100.00
36062;BME280;22123;52.412;20.970;2023-05-19T05:02:45;101856.53;;;10.22;100.00
36062;BME280;22123;52.412;20.970;2023-05-19T05:05:11;101852.56;;;10.17;100.00
36062;BME280;22123;52.412;20.970;2023-05-19T05:07:37;101850.56;;;10.19;100.00
36062;BME280;22123;52.412;20.970;2023-05-19T05:10:03;101833.25;;;10.12;100.00
36062;BME280;22123;52.412;20.970;2023-05-19T05:12:29;101845.59;;;10.14;100.00
36062;BME280;22123;52.412;20.970;2023-05-19T05:14:55;101841.00;;;10.05;100.00
36062;BME280;22123;52.412;20.970;2023-05-19T05:17:21;101855.50;;;10.14;100.00
36062;BME280;22123;52.412;20.970;2023-05-19T05:19:47;101854.50;;;10.15;100.00
36062;BME280;22123;52.412;20.970;2023-05-19T05:22:14;101841.88;;;10.05;100.00
36062;BME280;22123;52.412;20.970;2023-05-19T05:24:40;101864.72;;;10.21;100.00
36062;BME280;22123;52.412;20.970;2023-05-19T05:27:05;101844.88;;;10.12;100.00
36062;BME280;22123;52.412;20.970;2023-05-19T05:29:31;101757.03;;;9.61;100.00
36062;BME280;22123;52.412;20.970;2023-05-19T05:31:57;101841.91;;;10.15;100.00
36062;BME280;22123;52.412;20.970;2023-05-19T05:34:23;101848.59;;;10.21;100.00
36062;BME280;22123;52.412;20.970;2023-05-19T05:36:49;101836.66;;;10.14;100.00
36062;BME280;22123;52.412;20.970;2023-05-19T05:39:15;101847.75;;;10.20;100.00
36062;BME280;22123;52.412;20.970;2023-05-19T05:41:41;101867.59;;;10.29;100.00
36062;BME280;22123;52.412;20.970;2023-05-19T05:44:07;101854.75;;;10.33;100.00
36062;BME280;22123;52.412;20.970;2023-05-19T05:46:33;101833.03;;;10.24;100.00
36062;BME280;22123;52.412;20.970;2023-05-19T05:48:59;101841.28;;;10.33;100.00
36062;BME280;22123;52.412;20.970;2023-05-19T05:51:25;101855.66;;;10.43;100.00
36062;BME280;22123;52.412;20.970;2023-05-19T05:53:53;101856.63;;;10.42;100.00
36062;BME280;22123;52.412;20.970;2023-05-19T05:56:20;101830.19;;;10.26;100.00
36062;BME280;22123;52.412;20.970;2023-05-19T05:58:46;101862.56;;;10.46;100.00
36062;BME280;22123;52.412;20.970;2023-05-19T06:01:12;101864.00;;;10.50;100.00
36062;BME280;22123;52.412;20.970;2023-05-19T06:03:40;101853.94;;;10.42;100.00
36062;BME280;22123;52.412;20.970;2023-05-19T06:06:06;101864.47;;;10.55;100.00
36062;BME280;22123;52.412;20.970;2023-05-19T06:08:32;101794.06;;;10.19;100.00
36062;BME280;22123;52.412;20.970;2023-05-19T06:10:58;101860.50;;;10.59;100.00
36062;BME280;22123;52.412;20.970;2023-05-19T06:13:24;101858.66;;;10.59;100.00
36062;BME280;22123;52.412;20.970;2023-05-19T06:15:50;101745.13;;;9.94;100.00
36062;BME280;22123;52.412;20.970;2023-05-19T06:18:17;101860.38;;;10.60;100.00
36062;BME280;22123;52.412;20.970;2023-05-19T06:20:43;101832.44;;;10.52;100.00
36062;BME280;22123;52.412;20.970;2023-05-19T06:23:09;101869.31;;;10.71;100.00
36062;BME280;22123;52.412;20.970;2023-05-19T06:25:34;101839.50;;;10.53;100.00
36062;BME280;22123;52.412;20.970;2023-05-19T06:28:01;101878.84;;;10.75;100.00
36062;BME280;22123;52.412;20.970;2023-05-19T06:30:27;101843.06;;;10.53;100.00
36062;BME280;22123;52.412;20.970;2023-05-19T06:32:53;101865.34;;;10.65;100.00
36062;BME280;22123;52.412;20.970;2023-05-19T06:35:18;101855.81;;;10.61;100.00
36062;BME280;22123;52.412;20.970;2023-05-19T06:37:44;101837.97;;;10.50;100.00
36062;BME280;22123;52.412;20.970;2023-05-19T06:40:11;101855.41;;;10.66;100.00
36062;BME280;22123;52.412;20.970;2023-05-19T06:42:37;101866.91;;;10.77;100.00
36062;BME280;22123;52.412;20.970;2023-05-19T06:45:03;101861.50;;;10.77;100.00
36062;BME280;22123;52.412;20.970;2023-05-19T06:47:28;101851.16;;;10.73;100.00
36062;BME280;22123;52.412;20.970;2023-05-19T06:49:54;101863.81;;;10.82;100.00
36062;BME280;22123;52.412;20.970;2023-05-19T06:52:21;101863.53;;;10.85;100.00
36062;BME280;22123;52.412;20.970;2023-05-19T06:54:48;101872.31;;;10.87;100.00
36062;BME280;22123;52.412;20.970;2023-05-19T06:57:14;101866.09;;;10.96;100.00
36062;BME280;22123;52.412;20.970;2023-05-19T06:59:40;101835.03;;;10.83;100.00
36062;BME280;22123;52.412;20.970;2023-05-19T07:02:06;101857.88;;;10.98;100.00
36062;BME280;22123;52.412;20.970;2023-05-19T07:04:32;101830.22;;;10.86;100.00
36062;BME280;22123;52.412;20.970;2023-05-19T07:06:58;101817.00;;;10.83;100.00
36062;BME280;22123;52.412;20.970;2023-05-19T07:09:24;101850.78;;;11.07;100.00
36062;BME280;22123;52.412;20.970;2023-05-19T07:11:50;101851.34;;;11.10;100.00
36062;BME280;22123;52.412;20.970;2023-05-19T07:14:16;101845.53;;;11.05;100.00
36062;BME280;22123;52.412;20.970;2023-05-19T07:16:41;101819.28;;;10.98;100.00
36062;BME280;22123;52.412;20.970;2023-05-19T07:19:07;101826.53;;;11.07;100.00
36062;BME280;22123;52.412;20.970;2023-05-19T07:21:33;101851.78;;;11.25;100.00
36062;BME280;22123;52.412;20.970;2023-05-19T07:23:59;101855.03;;;11.19;100.00
36062;BME280;22123;52.412;20.970;2023-05-19T07:26:25;101862.41;;;11.27;100.00
36062;BME280;22123;52.412;20.970;2023-05-19T07:28:51;101823.84;;;11.07;100.00
36062;BME280;22123;52.412;20.970;2023-05-19T07:31:17;101849.50;;;11.21;100.00
36062;BME280;22123;52.412;20.970;2023-05-19T07:33:43;101834.31;;;11.10;100.00
36062;BME280;22123;52.412;20.970;2023-05-19T07:36:09;101861.97;;;11.22;100.00
36062;BME280;22123;52.412;20.970;2023-05-19T07:38:34;101824.81;;;11.06;100.00
36062;BME280;22123;52.412;20.970;2023-05-19T07:41:01;101857.88;;;11.27;100.00
36062;BME280;22123;52.412;20.970;2023-05-19T07:43:27;101843.81;;;11.24;100.00
36062;BME280;22123;52.412;20.970;2023-05-19T07:45:54;101840.56;;;11.20;100.00
36062;BME280;22123;52.412;20.970;2023-05-19T07:48:19;101862.81;;;11.32;100.00
36062;BME280;22123;52.412;20.970;2023-05-19T07:50:45;101840.56;;;11.20;100.00
36062;BME280;22123;52.412;20.970;2023-05-19T07:53:11;101834.47;;;11.08;100.00
36062;BME280;22123;52.412;20.970;2023-05-19T07:55:37;101853.34;;;11.18;100.00
36062;BME280;22123;52.412;20.970;2023-05-19T07:58:03;101845.94;;;11.10;100.00
36062;BME280;22123;52.412;20.970;2023-05-19T08:00:29;101826.22;;;11.00;100.00
36062;BME280;22123;52.412;20.970;2023-05-19T08:02:55;101855.03;;;11.19;100.00
36062;BME280;22123;52.412;20.970;2023-05-19T08:05:20;101855.31;;;11.26;100.00
36062;BME280;22123;52.412;20.970;2023-05-19T08:07:46;101827.94;;;11.21;100.00
36062;BME280;22123;52.412;20.970;2023-05-19T08:10:12;101819.28;;;11.07;100.00
36062;BME280;22123;52.412;20.970;2023-05-19T08:12:38;101846.50;;;11.34;100.00
36062;BME280;22123;52.412;20.970;2023-05-19T08:15:04;101853.31;;;11.38;100.00
36062;BME280;22123;52.412;20.970;2023-05-19T08:17:30;101835.03;;;11.31;100.00
36062;BME280;22123;52.412;20.970;2023-05-19T08:19:56;101830.34;;;11.24;100.00
36062;BME280;22123;52.412;20.970;2023-05-19T08:22:22;101823.56;;;11.20;100.00
36062;BME280;22123;52.412;20.970;2023-05-19T08:24:48;101831.19;;;11.24;100.00
36062;BME280;22123;52.412;20.970;2023-05-19T08:27:14;101827.78;;;11.22;100.00
36062;BME280;22123;52.412;20.970;2023-05-19T08:29:40;101854.16;;;11.38;100.00
36062;BME280;22123;52.412;20.970;2023-05-19T08:32:06;101848.50;;;11.31;100.00
36062;BME280;22123;52.412;20.970;2023-05-19T08:34:32;101855.03;;;11.29;100.00
36062;BME280;22123;52.412;20.970;2023-05-19T08:36:58;101840.72;;;11.19;100.00
36062;BME280;22123;52.412;20.970;2023-05-19T08:39:24;101855.72;;;11.31;100.00
36062;BME280;22123;52.412;20.970;2023-05-19T08:41:50;101832.03;;;11.15;100.00
36062;BME280;22123;52.412;20.970;2023-05-19T08:44:15;101833.91;;;11.14;100.00
36062;BME280;22123;52.412;20.970;2023-05-19T08:46:41;101854.19;;;11.28;100.00
36062;BME280;22123;52.412;20.970;2023-05-19T08:49:12;101864.09;;;11.28;100.00
36062;BME280;22123;52.412;20.970;2023-05-19T08:51:49;101833.50;;;11.09;100.00
36062;BME280;22123;52.412;20.970;2023-05-19T08:54:19;101851.34;;;11.30;100.00
36062;BME280;22123;52.412;20.970;2023-05-19T08:56:47;101850.91;;;11.35;100.00
36062;BME280;22123;52.412;20.970;2023-05-19T08:59:13;101848.22;;;11.35;100.00
36062;BME280;22123;52.412;20.970;2023-05-19T09:01:41;101839.28;;;11.34;100.00
36062;BME280;22123;52.412;20.970;2023-05-19T09:04:09;101823.66;;;11.28;100.00
36062;BME280;22123;52.412;20.970;2023-05-19T09:06:35;101835.03;;;11.41;100.00
36062;BME280;22123;52.412;20.970;2023-05-19T09:09:01;101819.28;;;11.27;100.00
36062;BME280;22123;52.412;20.970;2023-05-19T09:11:28;101846.06;;;11.48;100.00
36062;BME280;22123;52.412;20.970;2023-05-19T09:13:54;101847.03;;;11.47;100.00
36062;BME280;22123;52.412;20.970;2023-05-19T09:16:19;101840.53;;;11.49;100.00
36062;BME280;22123;52.412;20.970;2023-05-19T09:18:55;101829.19;;;11.46;100.00
36062;BME280;22123;52.412;20.970;2023-05-19T09:21:31;101844.34;;;11.57;100.00
36062;BME280;22123;52.412;20.970;2023-05-19T09:24:03;101804.78;;;11.38;100.00
36062;BME280;22123;52.412;20.970;2023-05-19T09:26:38;101830.28;;;11.63;100.00
36062;BME280;22123;52.412;20.970;2023-05-19T09:31:37;101801.03;;;11.58;100.00
36062;BME280;22123;52.412;20.970;2023-05-19T09:34:03;101807.53;;;11.75;100.00
36062;BME280;22123;52.412;20.970;2023-05-19T09:36:29;101802.69;;;11.79;100.00
36062;BME280;22123;52.412;20.970;2023-05-19T09:38:55;101802.41;;;11.82;100.00
36062;BME280;22123;52.412;20.970;2023-05-19T09:41:21;101822.78;;;12.04;100.00
36062;BME280;22123;52.412;20.970;2023-05-19T09:43:53;101837.78;;;12.16;100.00
36062;BME280;22123;52.412;20.970;2023-05-19T09:46:23;101834.09;;;12.17;100.00
36062;BME280;22123;52.412;20.970;2023-05-19T09:48:49;101772.88;;;11.80;100.00
36062;BME280;22123;52.412;20.970;2023-05-19T09:51:15;101826.19;;;12.06;100.00
36062;BME280;22123;52.412;20.970;2023-05-19T09:53:42;101842.34;;;12.16;100.00
36062;BME280;22123;52.412;20.970;2023-05-19T09:56:13;101832.69;;;12.13;100.00
36062;BME280;22123;52.412;20.970;2023-05-19T09:58:41;101819.25;;;12.04;100.00
36062;BME280;22123;52.412;20.970;2023-05-19T10:01:07;101840.91;;;12.22;100.00
36062;BME280;22123;52.412;20.970;2023-05-19T10:03:33;101833.94;;;12.19;100.00
36062;BME280;22123;52.412;20.970;2023-05-19T10:06:06;101840.59;;;12.25;100.00
36062;BME280;22123;52.412;20.970;2023-05-19T10:08:32;101835.19;;;12.25;100.00
36062;BME280;22123;52.412;20.970;2023-05-19T10:10:59;101807.81;;;12.20;100.00
36062;BME280;22123;52.412;20.970;2023-05-19T10:13:25;101822.34;;;12.37;100.00
36062;BME280;22123;52.412;20.970;2023-05-19T10:15:52;101812.28;;;12.29;100.00
36062;BME280;22123;52.412;20.970;2023-05-19T10:18:18;101823.72;;;12.41;100.00
36062;BME280;22123;52.412;20.970;2023-05-19T10:20:45;101818.50;;;12.39;100.00
36062;BME280;22123;52.412;20.970;2023-05-19T10:23:12;101832.47;;;12.52;100.00
36062;BME280;22123;52.412;20.970;2023-05-19T10:25:38;101810.69;;;12.36;100.00
36062;BME280;22123;52.412;20.970;2023-05-19T10:28:10;101814.91;;;12.48;100.00
36062;BME280;22123;52.412;20.970;2023-05-19T10:30:43;101830.81;;;12.69;100.00
36062;BME280;22123;52.412;20.970;2023-05-19T10:33:15;101815.75;;;12.67;100.00
36062;BME280;22123;52.412;20.970;2023-05-19T10:35:58;101824.47;;;12.79;100.00
36062;BME280;22123;52.412;20.970;2023-05-19T10:41:10;101827.06;;;12.80;100.00
36062;BME280;22123;52.412;20.970;2023-05-19T10:43:53;101822.38;;;12.73;100.00
36062;BME280;22123;52.412;20.970;2023-05-19T10:46:26;101811.06;;;12.69;100.00
36062;BME280;22123;52.412;20.970;2023-05-19T10:48:53;101817.84;;;12.73;100.00
36062;BME280;22123;52.412;20.970;2023-05-19T10:51:19;101830.03;;;12.77;100.00
36062;BME280;22123;52.412;20.970;2023-05-19T10:53:45;101804.94;;;12.67;100.00
36062;BME280;22123;52.412;20.970;2023-05-19T10:56:26;101812.44;;;12.73;100.00
36062;BME280;22123;52.412;20.970;2023-05-19T10:58:53;101805.50;;;12.70;100.00
36062;BME280;22123;52.412;20.970;2023-05-19T11:01:19;101821.78;;;12.79;100.00
36062;BME280;22123;52.412;20.970;2023-05-19T11:03:49;101824.41;;;12.88;100.00
36062;BME280;22123;52.412;20.970;2023-05-19T11:06:32;101825.81;;;12.93;100.00
36062;BME280;22123;52.412;20.970;2023-05-19T11:09:18;101815.00;;;12.93;100.00
36062;BME280;22123;52.412;20.970;2023-05-19T11:11:49;101803.19;;;12.94;100.00
36062;BME280;22123;52.412;20.970;2023-05-19T11:14:17;101816.47;;;13.05;100.00
36062;BME280;22123;52.412;20.970;2023-05-19T11:16:47;101806.50;;;13.05;100.00
36062;BME280;22123;52.412;20.970;2023-05-19T11:19:33;101791.81;;;13.08;100.00
36062;BME280;22123;52.412;20.970;2023-05-19T11:22:11;101823.63;;;13.14;100.00
36062;BME280;22123;52.412;20.970;2023-05-19T11:24:44;101828.56;;;13.19;100.00
36062;BME280;22123;52.412;20.970;2023-05-19T11:27:18;101810.34;;;13.21;100.00
36062;BME280;22123;52.412;20.970;2023-05-19T11:29:44;101831.66;;;13.24;100.00
36062;BME280;22123;52.412;20.970;2023-05-19T11:32:11;101804.69;;;13.14;100.00
36062;BME280;22123;52.412;20.970;2023-05-19T11:34:37;101812.56;;;13.26;100.00
36062;BME280;22123;52.412;20.970;2023-05-19T11:37:04;101806.09;;;13.18;100.00
36062;BME280;22123;52.412;20.970;2023-05-19T11:39:31;101813.88;;;13.21;100.00
36062;BME280;22123;52.412;20.970;2023-05-19T11:41:57;101813.88;;;13.21;100.00
36062;BME280;22123;52.412;20.970;2023-05-19T11:44:22;101799.84;;;13.18;100.00
36062;BME280;22123;52.412;20.970;2023-05-19T11:46:48;101802.06;;;13.22;100.00
36062;BME280;22123;52.412;20.970;2023-05-19T11:49:14;101816.41;;;13.41;100.00
36062;BME280;22123;52.412;20.970;2023-05-19T11:51:44;101812.41;;;13.45;100.00
36062;BME280;22123;52.412;20.970;2023-05-19T11:54:10;101819.94;;;13.60;100.00
36062;BME280;22123;52.412;20.970;2023-05-19T11:56:42;101803.44;;;13.45;100.00
36062;BME280;22123;52.412;20.970;2023-05-19T11:59:08;101820.41;;;13.55;100.00
36062;BME280;22123;52.412;20.970;2023-05-19T12:01:34;101824.25;;;13.44;100.00
36062;BME280;22123;52.412;20.970;2023-05-19T12:04:09;101822.22;;;13.46;100.00
36062;BME280;22123;52.412;20.970;2023-05-19T12:06:35;101746.47;;;13.02;100.00
36062;BME280;22123;52.412;20.970;2023-05-19T12:09:01;101826.47;;;13.49;100.00
36062;BME280;22123;52.412;20.970;2023-05-19T12:11:29;101802.75;;;13.43;100.00
36062;BME280;22123;52.412;20.970;2023-05-19T12:13:58;101810.16;;;13.41;100.00
36062;BME280;22123;52.412;20.970;2023-05-19T12:16:32;101821.06;;;13.49;100.00
36062;BME280;22123;52.412;20.970;2023-05-19T12:18:58;101828.53;;;13.55;100.00
36062;BME280;22123;52.412;20.970;2023-05-19T12:21:24;101816.31;;;13.51;100.00
36062;BME280;22123;52.412;20.970;2023-05-19T12:23:50;101823.13;;;13.55;100.00
36062;BME280;22123;52.412;20.970;2023-05-19T12:26:16;101799.34;;;13.41;100.00
36062;BME280;22123;52.412;20.970;2023-05-19T12:28:44;101820.81;;;13.60;100.00
36062;BME280;22123;52.412;20.970;2023-05-19T12:31:10;101812.38;;;13.63;100.00
36062;BME280;22123;52.412;20.970;2023-05-19T12:33:36;101817.22;;;13.60;100.00
36062;BME280;22123;52.412;20.970;2023-05-19T12:36:02;101824.84;;;13.64;100.00
36062;BME280;22123;52.412;20.970;2023-05-19T12:38:29;101803.53;;;13.61;100.00
36062;BME280;22123;52.412;20.970;2023-05-19T12:40:57;101818.28;;;13.67;100.00
36062;BME280;22123;52.412;20.970;2023-05-19T12:43:24;101779.94;;;13.45;100.00
36062;BME280;22123;52.412;20.970;2023-05-19T12:45:50;101821.31;;;13.64;100.00
36062;BME280;22123;52.412;20.970;2023-05-19T12:48:15;101819.56;;;13.54;100.00